createdAt,value
2018-07-12T00:01:00.422Z,13.83
2018-07-12T00:03:26.787Z,19.13
2018-07-12T00:05:53.610Z,23.87
2018-07-12T00:08:19.959Z,14.77
2018-07-12T00:10:46.364Z,14.60
2018-07-12T00:13:12.897Z,14.80
2018-07-12T00:15:39.540Z,14.70
2018-07-12T00:18:05.928Z,15.67
2018-07-12T00:20:32.267Z,16.63
2018-07-12T00:22:58.624Z,15.87
2018-07-12T00:25:25.023Z,14.27
2018-07-12T00:27:51.457Z,15.30
2018-07-12T00:30:17.832Z,14.60
2018-07-12T00:32:44.267Z,16.80
2018-07-12T00:35:10.697Z,15.90
2018-07-12T00:37:37.093Z,15.40
2018-07-12T00:40:03.511Z,14.70
2018-07-12T00:42:29.920Z,15.27
2018-07-12T00:44:56.938Z,14.80
2018-07-12T00:47:23.281Z,15.63
2018-07-12T00:49:49.633Z,15.73
2018-07-12T00:52:15.992Z,15.73
2018-07-12T00:54:42.685Z,17.00
2018-07-12T00:57:09.964Z,15.13
2018-07-12T00:59:36.369Z,14.00
2018-07-12T01:02:02.691Z,15.30
2018-07-12T01:04:29.088Z,15.97
2018-07-12T01:06:55.440Z,16.40
2018-07-12T01:09:21.855Z,15.80
2018-07-12T01:11:48.240Z,16.20
2018-07-12T01:14:14.711Z,16.50
2018-07-12T01:16:41.114Z,17.10
2018-07-12T01:19:07.967Z,18.40
2018-07-12T01:21:34.416Z,17.87
2018-07-12T01:24:00.789Z,19.53
2018-07-12T01:26:27.527Z,19.90
2018-07-12T01:28:53.881Z,21.60
2018-07-12T01:31:20.253Z,21.60
2018-07-12T01:33:46.864Z,21.63
2018-07-12T01:36:13.744Z,22.63
2018-07-12T01:38:40.080Z,22.47
2018-07-12T01:41:06.479Z,21.80
2018-07-12T01:43:32.846Z,21.93
2018-07-12T01:45:59.213Z,22.13
2018-07-12T01:48:25.642Z,22.33
2018-07-12T01:50:52.057Z,22.80
2018-07-12T01:53:18.392Z,20.13
2018-07-12T01:55:45.140Z,19.37
2018-07-12T01:58:11.473Z,18.37
2018-07-12T02:00:38.048Z,18.47
2018-07-12T02:03:04.490Z,19.50
2018-07-12T02:05:30.852Z,17.67
2018-07-12T02:07:57.202Z,17.63
2018-07-12T02:10:23.621Z,19.43
2018-07-12T02:12:50.007Z,19.80
2018-07-12T02:15:16.449Z,19.00
2018-07-12T02:17:42.804Z,20.33
2018-07-12T02:20:09.232Z,19.20
2018-07-12T02:22:35.594Z,18.70
2018-07-12T02:25:02.237Z,18.13
2018-07-12T02:27:28.803Z,17.60
2018-07-12T02:29:55.444Z,17.87
2018-07-12T02:32:21.835Z,17.57
2018-07-12T02:34:48.164Z,17.03
2018-07-12T02:37:14.499Z,17.43
2018-07-12T02:39:40.914Z,15.27
2018-07-12T02:42:07.252Z,16.70
2018-07-12T02:44:33.611Z,16.47
2018-07-12T02:46:59.991Z,14.80
2018-07-12T02:49:26.387Z,16.73
2018-07-12T02:51:52.803Z,16.73
2018-07-12T02:54:19.502Z,17.13
2018-07-12T02:56:45.878Z,17.37
2018-07-12T02:59:12.225Z,16.43
2018-07-12T03:01:39.087Z,16.23
2018-07-12T03:04:05.479Z,15.90
2018-07-12T03:06:31.852Z,16.03
2018-07-12T03:08:58.249Z,15.53
2018-07-12T03:11:24.641Z,17.47
2018-07-12T03:13:51.146Z,17.00
2018-07-12T03:16:17.540Z,17.67
2018-07-12T03:18:43.941Z,18.03
2018-07-12T03:21:11.772Z,17.33
2018-07-12T03:23:38.581Z,15.97
2018-07-12T03:26:04.946Z,16.20
2018-07-12T03:28:31.351Z,14.40
2018-07-12T03:30:57.778Z,14.67
2018-07-12T03:33:24.125Z,16.60
2018-07-12T03:35:50.534Z,13.93
2018-07-12T03:38:16.894Z,15.43
2018-07-12T03:40:43.236Z,17.00
2018-07-12T03:43:09.602Z,16.50
2018-07-12T03:45:36.032Z,19.50
2018-07-12T03:48:02.375Z,21.60
2018-07-12T03:50:28.759Z,19.93
2018-07-12T03:52:55.171Z,28.67
2018-07-12T03:55:21.559Z,34.57
2018-07-12T03:57:47.968Z,22.63
2018-07-12T04:00:14.698Z,16.27
2018-07-12T04:02:41.101Z,15.73
2018-07-12T04:05:07.467Z,14.83
2018-07-12T04:07:33.880Z,14.87
2018-07-12T04:10:00.206Z,13.87
2018-07-12T04:12:26.592Z,14.10
2018-07-12T04:14:53.052Z,15.03
2018-07-12T04:17:34.587Z,14.30
2018-07-12T04:20:03.205Z,14.27
2018-07-12T04:22:30.863Z,13.50
2018-07-12T04:24:57.241Z,13.73
2018-07-12T04:27:24.023Z,14.47
2018-07-12T04:29:51.636Z,14.63
2018-07-12T04:32:18.205Z,14.10
2018-07-12T04:34:45.464Z,13.53
2018-07-12T04:37:11.839Z,13.80
2018-07-12T04:39:38.169Z,12.60
2018-07-12T04:42:04.597Z,13.67
2018-07-12T04:44:31.177Z,13.67
2018-07-12T04:46:57.553Z,12.43
2018-07-12T04:49:23.906Z,11.10
2018-07-12T04:51:51.778Z,10.23
2018-07-12T04:54:18.545Z,10.20
2018-07-12T04:56:45.261Z,8.73
2018-07-12T04:59:11.645Z,8.37
2018-07-12T05:01:38.007Z,9.00
2018-07-12T05:04:04.346Z,9.27
2018-07-12T05:06:30.858Z,9.37
2018-07-12T05:08:57.261Z,9.90
2018-07-12T05:11:23.888Z,10.97
2018-07-12T05:13:51.137Z,12.00
2018-07-12T05:16:17.599Z,16.70
2018-07-12T05:18:44.195Z,13.80
2018-07-12T05:21:10.609Z,15.83
2018-07-12T05:23:36.981Z,14.77
2018-07-12T05:26:03.559Z,17.27
2018-07-12T05:28:30.029Z,16.93
2018-07-12T05:30:56.525Z,16.60
2018-07-12T05:33:23.149Z,17.70
2018-07-12T05:35:50.628Z,17.37
2018-07-12T05:38:17.956Z,17.17
2018-07-12T05:40:45.341Z,12.90
2018-07-12T05:43:12.640Z,11.87
2018-07-12T05:45:39.904Z,11.97
2018-07-12T05:48:07.628Z,14.17
2018-07-12T05:50:35.637Z,12.50
2018-07-12T05:53:03.025Z,10.30
2018-07-12T05:55:30.304Z,12.60
2018-07-12T05:57:57.572Z,12.30
2018-07-12T06:00:24.870Z,10.43
2018-07-12T06:02:52.168Z,9.77
2018-07-12T06:05:19.420Z,9.70
2018-07-12T06:07:46.740Z,11.67
2018-07-12T06:10:14.322Z,11.70
2018-07-12T06:12:41.599Z,10.80
2018-07-12T06:15:08.969Z,9.87
2018-07-12T06:17:36.384Z,9.80
2018-07-12T06:20:04.361Z,9.13
2018-07-12T06:22:31.649Z,9.90
2018-07-12T06:24:58.943Z,9.77
2018-07-12T06:27:26.173Z,10.07
2018-07-12T06:29:53.559Z,11.50
2018-07-12T06:32:21.056Z,8.20
2018-07-12T06:34:48.414Z,7.63
2018-07-12T06:37:16.596Z,5.70
2018-07-12T06:39:43.812Z,10.37
2018-07-12T06:42:11.110Z,5.73
2018-07-12T06:44:38.420Z,4.40
2018-07-12T06:47:05.765Z,3.23
2018-07-12T06:49:33.128Z,2.97
2018-07-12T06:52:00.413Z,3.40
2018-07-12T06:54:27.747Z,3.53
2018-07-12T06:56:55.271Z,3.10
2018-07-12T06:59:22.505Z,3.60
2018-07-12T07:01:49.870Z,3.73
2018-07-12T07:04:17.231Z,3.40
2018-07-12T07:06:44.541Z,4.17
2018-07-12T07:09:11.902Z,4.17
2018-07-12T07:11:39.865Z,5.20
2018-07-12T07:14:07.523Z,4.80
2018-07-12T07:16:34.941Z,5.43
2018-07-12T07:19:02.342Z,5.27
2018-07-12T07:21:29.672Z,4.90
2018-07-12T07:23:57.056Z,6.60
2018-07-12T07:26:24.516Z,6.70
2018-07-12T07:28:51.838Z,6.10
2018-07-12T07:31:19.237Z,5.90
2018-07-12T07:33:46.667Z,5.27
2018-07-12T07:36:13.972Z,5.30
2018-07-12T07:38:41.297Z,6.07
2018-07-12T07:41:08.681Z,8.87
2018-07-12T07:43:35.972Z,9.70
2018-07-12T07:46:03.347Z,10.83
2018-07-12T07:48:30.686Z,8.90
2018-07-12T07:50:57.939Z,11.73
2018-07-12T07:53:25.260Z,15.80
2018-07-12T07:55:52.689Z,16.77
2018-07-12T07:58:20.092Z,17.90
2018-07-12T08:00:47.439Z,16.97
2018-07-12T08:03:14.901Z,17.60
2018-07-12T08:05:49.085Z,16.07
2018-07-12T08:08:16.521Z,16.10
2018-07-12T08:10:43.877Z,15.80
2018-07-12T08:13:11.272Z,17.10
2018-07-12T08:15:38.665Z,15.17
2018-07-12T08:18:05.931Z,15.90
2018-07-12T08:20:33.317Z,16.03
2018-07-12T08:23:00.657Z,15.73
2018-07-12T08:25:27.960Z,15.17
2018-07-12T08:28:06.914Z,15.90
2018-07-12T08:30:34.193Z,10.20
2018-07-12T08:33:01.542Z,7.10
2018-07-12T08:35:28.927Z,11.70
2018-07-12T08:37:56.254Z,8.70
2018-07-12T08:40:23.548Z,8.60
2018-07-12T08:42:50.647Z,6.90
2018-07-12T08:45:17.630Z,8.30
2018-07-12T08:47:44.810Z,12.53
2018-07-12T08:50:11.892Z,12.70
2018-07-12T08:52:38.944Z,15.57
2018-07-12T08:55:05.945Z,17.10
2018-07-12T08:57:33.001Z,17.13
2018-07-12T09:00:00.056Z,17.37
2018-07-12T09:02:27.101Z,16.20
2018-07-12T09:04:54.791Z,16.60
2018-07-12T09:07:21.817Z,15.20
2018-07-12T09:09:48.952Z,15.83
2018-07-12T09:12:16.293Z,17.60
2018-07-12T09:14:43.693Z,17.87
2018-07-12T09:17:10.756Z,18.80
2018-07-12T09:19:37.816Z,16.00
2018-07-12T09:22:04.919Z,15.03
2018-07-12T09:24:31.955Z,13.83
2018-07-12T09:26:58.997Z,13.60
2018-07-12T09:29:26.009Z,11.77
2018-07-12T09:31:53.069Z,11.70
2018-07-12T09:34:20.124Z,10.90
2018-07-12T09:36:47.130Z,10.73
2018-07-12T09:39:14.168Z,11.27
2018-07-12T09:41:41.511Z,10.83
2018-07-12T09:44:08.536Z,9.63
2018-07-12T09:46:35.588Z,9.20
2018-07-12T09:49:02.651Z,10.30
2018-07-12T09:51:29.665Z,9.90
2018-07-12T09:53:56.732Z,10.20
2018-07-12T09:56:34.170Z,11.20
2018-07-12T09:59:01.201Z,10.50
2018-07-12T10:01:34.175Z,10.17
2018-07-12T10:04:01.191Z,10.37
2018-07-12T10:06:31.180Z,9.93
2018-07-12T10:08:59.938Z,10.33
2018-07-12T10:11:32.697Z,9.90
2018-07-12T10:14:05.600Z,11.23
2018-07-12T10:16:38.509Z,10.10
2018-07-12T10:19:05.953Z,10.67
2018-07-12T10:21:33.007Z,9.90
2018-07-12T10:24:00.160Z,9.33
2018-07-12T10:26:27.224Z,8.47
2018-07-12T10:28:54.225Z,8.40
2018-07-12T10:31:21.238Z,9.40
2018-07-12T10:33:48.251Z,9.90
2018-07-12T10:36:15.330Z,10.40
2018-07-12T10:38:42.327Z,9.50
2018-07-12T10:41:09.392Z,8.67
2018-07-12T10:43:36.393Z,8.40
2018-07-12T10:46:03.385Z,8.13
2018-07-12T10:48:30.477Z,7.60
2018-07-12T10:50:57.476Z,7.30
2018-07-12T10:53:24.814Z,7.30
2018-07-12T10:55:51.926Z,6.73
2018-07-12T10:58:19.039Z,6.80
2018-07-12T11:00:46.080Z,6.40
2018-07-12T11:03:13.141Z,6.77
2018-07-12T11:05:40.131Z,6.43
2018-07-12T11:08:07.185Z,6.13
2018-07-12T11:10:34.513Z,6.77
2018-07-12T11:13:19.439Z,6.17
2018-07-12T11:15:47.441Z,6.40
2018-07-12T11:18:14.652Z,6.27
2018-07-12T11:20:41.938Z,6.80
2018-07-12T11:23:09.040Z,5.80
2018-07-12T11:25:36.173Z,6.30
2018-07-12T11:28:03.590Z,6.50
2018-07-12T11:30:30.625Z,6.03
2018-07-12T11:32:57.648Z,6.80
2018-07-12T11:35:24.627Z,6.63
2018-07-12T11:37:51.862Z,6.87
2018-07-12T11:40:18.836Z,5.93
2018-07-12T11:42:45.824Z,6.90
2018-07-12T11:45:12.947Z,5.87
2018-07-12T11:47:39.974Z,5.60
2018-07-12T11:50:07.063Z,6.00
2018-07-12T11:52:34.093Z,5.40
2018-07-12T11:55:01.145Z,5.37
2018-07-12T11:57:28.138Z,5.20
2018-07-12T11:59:55.527Z,6.03
2018-07-12T12:02:22.548Z,6.80
2018-07-12T12:04:49.914Z,6.60
2018-07-12T12:07:16.998Z,6.87
2018-07-12T12:09:44.014Z,7.17
2018-07-12T12:12:11.055Z,5.90
2018-07-12T12:14:38.102Z,5.93
2018-07-12T12:17:05.136Z,6.27
2018-07-12T12:19:32.274Z,6.53
2018-07-12T12:21:59.827Z,6.17
2018-07-12T12:24:26.867Z,6.97
2018-07-12T12:26:53.962Z,7.30
2018-07-12T12:29:20.990Z,7.97
2018-07-12T12:31:48.019Z,8.20
2018-07-12T12:34:15.055Z,8.40
2018-07-12T12:36:42.109Z,7.60
2018-07-12T12:39:09.152Z,8.33
2018-07-12T12:41:36.154Z,9.30
2018-07-12T12:44:03.251Z,10.50
2018-07-12T12:46:30.344Z,6.77
2018-07-12T12:48:57.346Z,9.03
2018-07-12T12:51:24.415Z,7.83
2018-07-12T12:53:51.453Z,9.97
2018-07-12T12:56:18.530Z,8.53
2018-07-12T12:58:45.560Z,6.80
2018-07-12T13:01:12.563Z,6.73
2018-07-12T13:03:39.558Z,5.53
2018-07-12T13:06:06.675Z,7.23
2018-07-12T13:08:33.843Z,5.27
2018-07-12T13:11:00.868Z,5.70
2018-07-12T13:13:28.184Z,5.80
2018-07-12T13:15:55.277Z,5.70
2018-07-12T13:18:22.321Z,6.23
2018-07-12T13:20:49.340Z,6.23
2018-07-12T13:23:16.377Z,5.90
2018-07-12T13:25:43.495Z,5.37
2018-07-12T13:28:10.538Z,5.20
2018-07-12T13:30:37.495Z,4.80
2018-07-12T13:33:04.506Z,5.00
2018-07-12T13:35:31.556Z,5.10
2018-07-12T13:37:58.596Z,7.17
2018-07-12T13:40:25.635Z,5.10
2018-07-12T13:42:52.651Z,5.17
2018-07-12T13:45:19.655Z,5.77
2018-07-12T13:47:46.682Z,5.60
2018-07-12T13:50:13.672Z,6.53
2018-07-12T13:52:40.712Z,7.03
